Tiempo atmosférico en la estación meteorológica de Cubillas de Rueda, León (916 m.)

Fecha
DESCASC
Temp. máxima en grados centígrados (hora)
DESCASC
Temp. mínima en grados centígrados (hora)
DESCASC
Temp. media en grados centígrados
DESCASC
Racha de viento máxima en m/sg (hora)
DESCASC
Velocidad máxima media en intervalos de 10 minutos(hora)
DESCASC
Precipitaciones diarias en mm
DESCASC
Precipitaciones de 00:00 a 06:00 en mm
DESCASC
Precipitaciones de 06:00 a 12:00 en mm
DESCASC
Precipitaciones de 12:00 a 18:00 en mm
DESCASC
Precipitaciones de 18:00 a 24:00 en mm
DESCASC
22-10-2017 15.5 (16:40) -1.6 (05:40) 6.9 7.22 (14:20) 2.78 (14:20) 0 0 0 0 0
21-10-2017 16.2 (17:10) 2.3 (23:59) 9.3 11.11 (16:30) 6.11 (16:30) 0 0 0 0 0
20-10-2017 19.2 (18:10) 9.5 (04:50) 14.4 5.83 (20:50) 3.06 (16:50) 0 0 0 0 0
19-10-2017 13.2 (15:40) 0.2 (00:00) 6.7 7.5 (15:50) 3.89 (17:30) 0.2 0 0.2 0 0
18-10-2017 13 (17:30) 3.2 (00:00) 8.1 7.22 (13:50) 3.61 (13:10) 7 0 5.2 1.8 0
17-10-2017 16.4 (04:30) 8.4 (00:00) 12.4 11.11 (15:40) 6.39 (15:40) 1.2 0 0.4 0.8 0
16-10-2017 24 (15:30) 9.4 (00:00) 16.7 9.72 (02:00) 5.28 (01:30) 0 0 0 0 0
15-10-2017 27.4 (15:40) 8.4 (00:00) 17.9 14.17 (19:20) 7.22 (19:20) 0 0 0 0 0
14-10-2017 25.5 (16:30) 4.7 (00:00) 15.1 6.39 (16:20) 3.33 (15:50) 0 0 0 0 0
13-10-2017 25.8 (16:50) 4.8 (00:00) 15.3 6.11 (15:20) 3.61 (17:20) 0 0 0 0 0
12-10-2017 25.3 (17:50) 2 (00:00) 13.6 6.11 (14:40) 3.61 (14:40) 0 0 0 0 0
11-10-2017 24.4 (16:30) 1.8 (00:00) 13.1 8.33 (16:20) 4.44 (15:50) 0 0 0 0 0
10-10-2017 25.1 (17:00) 2.8 (00:00) 14 6.11 (16:10) 3.33 (15:50) 0 0 0 0 0
09-10-2017 24.6 (16:50) 1.2 (00:00) 12.9 5.56 (15:40) 2.78 (15:10) 0 0 0 0 0
08-10-2017 25.5 (17:00) 1.7 (00:00) 13.6 5.28 (17:00) 3.06 (14:50) 0 0 0 0 0
07-10-2017 25.8 (17:30) 0.8 (00:00) 13.3 5 (14:50) 3.06 (18:10) 0 0 0 0 0
06-10-2017 25.7 (17:30) 3 (00:00) 14.4 5.83 (15:40) 3.06 (16:00) 0 0 0 0 0
05-10-2017 29.5 (18:00) 7.9 (00:00) 18.7 7.22 (18:40) 5 (18:50) 0 0 0 0 0
04-10-2017 26.9 (16:40) 6.2 (00:00) 16.5 6.11 (16:50) 3.06 (15:00) 0 0 0 0 0
03-10-2017 26.5 (16:50) 8.8 (00:00) 17.7 10 (20:30) 5.56 (20:20) 0 0 0 0 0
02-10-2017 27.4 (17:00) 9.8 (00:00) 18.6 5.83 (15:20) 3.61 (18:20) 0 0 0 0 0
01-10-2017 21.3 (19:10) 7.5 (00:00) 14.4 3.89 (14:40) 2.5 (14:40) 0 0 0 0 0
30-09-2017 22.3 (15:20) 10.5 (00:00) 16.4 6.67 (20:10) 4.17 (20:10) 0 0 0 0 0
29-09-2017 25.1 (16:50) 5.9 (00:00) 15.5 8.33 (16:00) 4.72 (17:00) 0 0 0 0 0
28-09-2017 25.2 (16:00) 4.9 (00:00) 15.1 8.33 (16:30) 4.72 (17:10) 0 0 0 0 0
27-09-2017 24.7 (17:00) 3.4 (00:00) 14.1 7.22 (14:10) 4.17 (13:30) 0 0 0 0 0
26-09-2017 21.7 (17:10) 3.3 (00:00) 12.5 6.39 (15:20) 3.33 (14:50) 0 0 0 0 0
25-09-2017 22.7 (17:10) 5.3 (00:00) 14 6.39 (18:50) 3.61 (19:00) 0 0 0 0 0
24-09-2017 25.6 (17:50) 5.2 (00:00) 15.4 8.89 (15:40) 5 (16:40) 0 0 0 0 0
23-09-2017 24.8 (16:30) 5.7 (00:00) 15.2 9.44 (16:30) 5 (16:10) 0 0 0 0 0

Gráficas

Temp. máximas Temp. mínimas Temp. medias Precipitaciones Rachas de viento máximas Velocidades máximas media en intervalos de 10 minutos

Datos horarios

Fecha y hora oficial Temperatura (ºC) Velocidad del viento (km/h) Dirección del viento Racha (km/h) Dirección de racha Precipitación (mm) Presión (hPa) Tendencia (hPa) Humedad (%)
2017-10-22 23:00:00 5.6 5 Nordeste 8 Este 0 -- -- 80
2017-10-22 22:00:00 4.4 3 Este 7 Sudeste 0 -- -- 79
2017-10-22 21:00:00 7.5 5 Sudeste 8 Sudeste 0 -- -- 67
2017-10-22 20:00:00 9.2 5 Sur 6 Sudeste 0 -- -- 62
2017-10-22 19:00:00 14.4 5 Sudoeste 12 Sudoeste 0 -- -- 47
2017-10-22 18:00:00 15.4 4 Sudoeste 10 Sudoeste 0 -- -- 44
2017-10-22 17:00:00 15.5 6 Sur 15 Sudeste 0 -- -- 44
2017-10-22 16:00:00 14.7 5 Sudeste 13 Sur 0 -- -- 49
2017-10-22 15:00:00 14.2 4 Sur 26 Sur 0 -- -- 50
2017-10-22 14:00:00 12.7 5 Sudoeste 16 Oeste 0 -- -- 56
2017-10-22 13:00:00 11.5 3 Sur 12 Noroeste 0 -- -- 58
2017-10-22 12:00:00 9.4 3 Norte 6 Noroeste 0 -- -- 67
2017-10-22 11:00:00 4.8 0 Calma 6 Nordeste 0 -- -- 88
2017-10-22 10:00:00 1.1 2 Este 4 Este 0 -- -- 96
2017-10-22 09:00:00 -0.5 0 Calma 9 Este 0 -- -- 95
2017-10-22 08:00:00 -1.6 3 Este 5 Nordeste 0 -- -- 93
2017-10-22 07:00:00 -1.4 3 Nordeste 5 Nordeste 0 -- -- 93
2017-10-22 06:00:00 -1.5 2 Nordeste 6 Este 0 -- -- 94
2017-10-22 05:00:00 -1.3 4 Este 6 Nordeste 0 -- -- 92
2017-10-22 04:00:00 -0.4 3 Este 4 Este 0 -- -- 90
2017-10-22 03:00:00 -0.2 0 Calma 2 Sudeste 0 -- -- 89
2017-10-22 02:00:00 0.6 0 Calma 2 Este 0 -- -- 88
2017-10-22 01:00:00 1.5 0 Calma 6 Este 0 -- -- 86
2017-10-22 00:00:00 2.3 4 Este 6 Este 0 -- -- 84
2017-10-21 23:00:00 4.4 3 Este 6 Este 0 -- -- 79
2017-10-21 22:00:00 5.7 5 Nordeste 10 Norte 0 -- -- 72
2017-10-21 21:00:00 7.1 0 Calma 8 Norte 0 -- -- 66
2017-10-21 20:00:00 11.2 4 Norte 18 Noroeste 0 -- -- 51
2017-10-21 19:00:00 14.4 6 Noroeste 32 Noroeste 0 -- -- 42
2017-10-21 18:00:00 15.7 15 Oeste 28 Oeste 0 -- -- 39
2017-10-21 17:00:00 16.1 18 Oeste 40 Oeste 0 -- -- 38
2017-10-21 16:00:00 15.7 17 Oeste 34 Noroeste 0 -- -- 39
2017-10-21 15:00:00 15.6 17 Oeste 36 Noroeste 0 -- -- 40
2017-10-21 14:00:00 14.8 19 Noroeste 35 Noroeste 0 -- -- 43
2017-10-21 13:00:00 12.8 17 Oeste 37 Oeste 0 -- -- 55
2017-10-21 12:00:00 12.9 21 Oeste 35 Oeste 0 -- -- 49
2017-10-21 11:00:00 11.3 9 Oeste 19 Oeste 0 -- -- 70
2017-10-21 10:00:00 10.2 5 Oeste 18 Oeste 0 -- -- 72
2017-10-21 09:00:00 10.8 8 Oeste 19 Oeste 0 -- -- 76
2017-10-21 08:00:00 11.6 8 Oeste 17 Oeste 0 -- -- 89
2017-10-21 07:00:00 12.3 9 Sudoeste 19 Oeste 0 -- -- 89
2017-10-21 06:00:00 13 7 Oeste 17 Oeste 0 -- -- 94
2017-10-21 05:00:00 13.4 9 Sudoeste 15 Sudoeste 0 -- -- 94
2017-10-21 04:00:00 12.8 4 Sudoeste 11 Sudoeste 0 -- -- 95
2017-10-21 03:00:00 12.3 4 Sur 11 Sudoeste 0 -- -- 94
2017-10-21 02:00:00 12.5 4 Sur 15 Sudoeste 0 -- -- 92
2017-10-21 01:00:00 13.2 10 Sudoeste 19 Sudoeste 0 -- -- 94
2017-10-21 00:00:00 13.9 9 Sudoeste 17 Sudoeste 0 -- -- 91
2017-10-20 23:00:00 14.8 7 Sudoeste 17 Sudoeste 0 -- -- 89
2017-10-20 22:00:00 14.9 8 Sudoeste 13 Sudoeste 0 -- -- 87
2017-10-20 21:00:00 15.9 9 Sudoeste 21 Sudoeste 0 -- -- 81
2017-10-20 20:00:00 13.7 3 Este 5 Sudeste 0 -- -- 70
2017-10-20 19:00:00 18.7 2 Sudoeste 13 Sudoeste 0 -- -- 55
2017-10-20 18:00:00 19.1 6 Oeste 18 Sur 0 -- -- 56
2017-10-20 17:00:00 18.8 10 Sudoeste 20 Oeste 0 -- -- 56
2017-10-20 16:00:00 17.5 9 Oeste 20 Sudoeste 0 -- -- 57
2017-10-20 15:00:00 16.5 8 Sudoeste 20 Oeste 0 -- -- 61
2017-10-20 14:00:00 15.6 6 Oeste 18 Oeste 0 -- -- 66
2017-10-20 13:00:00 14.1 8 Sudoeste 18 Oeste 0 -- -- 72
2017-10-20 12:00:00 12 4 Sudoeste 9 Oeste 0 -- -- 87
2017-10-20 11:00:00 11.1 4 Sur 5 Sudoeste 0 -- -- 97
2017-10-20 10:00:00 10.2 0 Calma 4 Noroeste 0 -- -- 98
2017-10-20 09:00:00 10 0 Calma 3 Este 0 -- -- 97
2017-10-20 08:00:00 9.9 0 Calma 3 Noroeste 0 -- -- 97
2017-10-20 07:00:00 9.8 0 Calma 3 Noroeste 0 -- -- 97
2017-10-20 06:00:00 9.6 0 Calma 10 Sudoeste 0 -- -- 97
2017-10-20 05:00:00 9.6 5 Sudoeste 10 Sudoeste 0 -- -- 96
2017-10-20 04:00:00 9.8 4 Sudoeste 7 Sudoeste 0 -- -- 95
2017-10-20 03:00:00 9.8 3 Sudoeste 8 Sur 0 -- -- 95
2017-10-20 02:00:00 9.8 3 Sudoeste 5 Sudoeste 0 -- -- 94
2017-10-20 01:00:00 10 3 Sudoeste 8 Sudoeste 0 -- -- 91
2017-10-20 00:00:00 10 0 Calma 8 Sur 0 -- -- 88
2017-10-19 23:00:00 9.1 6 Sur 9 Sur 0 -- -- 88
2017-10-19 22:00:00 9.3 2 Sudeste 5 Este 0 -- -- 82
2017-10-19 21:00:00 11.1 0 Calma 6 Oeste 0 -- -- 75
2017-10-19 20:00:00 11.7 2 Oeste 11 Sudoeste 0 -- -- 69
2017-10-19 19:00:00 12.2 8 Oeste 18 Oeste 0 -- -- 64
2017-10-19 18:00:00 12.8 13 Oeste 22 Oeste 0 -- -- 65
2017-10-19 17:00:00 12.7 12 Oeste 24 Oeste 0 -- -- 62
2017-10-19 16:00:00 13.1 14 Oeste 27 Oeste 0 -- -- 57
2017-10-19 15:00:00 12.7 13 Sudoeste 22 Sudoeste 0 -- -- 63
2017-10-19 14:00:00 12.3 12 Oeste 23 Noroeste 0 -- -- 64
2017-10-19 13:00:00 10.7 8 Oeste 15 Oeste 0 -- -- 73
2017-10-19 12:00:00 10.2 4 Oeste 11 Oeste 0 -- -- 80
2017-10-19 11:00:00 6.6 4 Nordeste 7 Nordeste 0 -- -- 91
2017-10-19 10:00:00 3.9 4 Nordeste 6 Nordeste 0 -- -- 98
2017-10-19 09:00:00 1 5 Este 7 Nordeste 0 -- -- 97
2017-10-19 08:00:00 0.4 3 Este 9 Este 0.2 -- -- 96
2017-10-19 07:00:00 0.4 4 Nordeste 8 Este 0 -- -- 96
2017-10-19 06:00:00 0.3 5 Este 6 Este 0 -- -- 96
2017-10-19 05:00:00 0.8 0 Calma 7 Este 0 -- -- 95
2017-10-19 04:00:00 1.5 4 Este 9 Este 0 -- -- 95
2017-10-19 03:00:00 1.6 3 Este 6 Este 0 -- -- 95
2017-10-19 02:00:00 2.2 0 Calma 7 Nordeste 0 -- -- 95
2017-10-19 01:00:00 2.5 2 Nordeste 5 Este 0 -- -- 95
2017-10-19 00:00:00 3.2 3 Este 8 Este 0 -- -- 93
2017-10-18 23:00:00 4 2 Sur 6 Sudoeste 0 -- -- 92
2017-10-18 22:00:00 5.4 0 Calma 5 Este 0 -- -- 90
2017-10-18 21:00:00 7.5 4 Este 6 Nordeste 0 -- -- 84
2017-10-18 20:00:00 9.3 5 Nordeste 18 Nordeste 0 -- -- 77
2017-10-18 19:00:00 10.5 12 Nordeste 19 Norte 0 -- -- 75
2017-10-18 18:00:00 12.3 5 Noroeste 16 Noroeste 0 -- -- 65
2017-10-18 17:00:00 12.5 10 Oeste 19 Sudoeste 0 -- -- 65
2017-10-18 16:00:00 10.9 8 Oeste 19 Oeste 0 -- -- 86
2017-10-18 15:00:00 9.1 4 Oeste 19 Oeste 0.8 -- -- 93
2017-10-18 14:00:00 9.1 12 Oeste 26 Oeste 1 -- -- 90
2017-10-18 13:00:00 9.8 10 Sudoeste 21 Sudoeste 0 -- -- 91
2017-10-18 12:00:00 9.6 9 Sudoeste 19 Sudoeste 0.6 -- -- 94
2017-10-18 11:00:00 9 6 Sudeste 12 Sudeste 1.2 -- -- 95
2017-10-18 10:00:00 8.2 7 Sudeste 18 Sudeste 2 -- -- 94
2017-10-18 09:00:00 7.9 6 Este 15 Sudeste 1 -- -- 93
2017-10-18 08:00:00 8 0 Calma 13 Sudeste 0.2 -- -- 93
2017-10-18 07:00:00 8 8 Sudeste 12 Sudeste 0.2 -- -- 92
2017-10-18 06:00:00 8.1 0 Calma 12 Este 0 -- -- 91
2017-10-18 05:00:00 8.4 2 Oeste 14 Sudoeste 0 -- -- 88
2017-10-18 04:00:00 8.5 3 Sur 10 Sur 0 -- -- 84
2017-10-18 03:00:00 8 2 Sur 13 Sur 0 -- -- 86
2017-10-18 02:00:00 8.7 4 Sur 8 Sur 0 -- -- 88
2017-10-18 01:00:00 10.1 3 Oeste 12 Sur 0 -- -- 88
2017-10-18 00:00:00 9.7 2 Norte 5 Noroeste 0 -- -- 90
2017-10-17 23:00:00 9 0 Calma 8 Sudeste 0 -- -- 91
2017-10-17 22:00:00 8.8 5 Sudeste 6 Sudeste 0 -- -- 87
2017-10-17 21:00:00 10.7 0 Calma 5 Sudeste 0 -- -- 84
2017-10-17 20:00:00 12.8 3 Sur 13 Sur 0 -- -- 73
2017-10-17 19:00:00 13.9 8 Sudoeste 23 Sudoeste 0 -- -- 70
2017-10-17 18:00:00 14.7 12 Sudoeste 23 Sudoeste 0 -- -- 69
2017-10-17 17:00:00 14.5 13 Sudoeste 32 Sudoeste 0.2 -- -- 87
2017-10-17 16:00:00 14.2 19 Sudoeste 40 Sur 0.4 -- -- 90
2017-10-17 15:00:00 15.6 18 Sur 35 Sudoeste 0 -- -- 77
2017-10-17 14:00:00 15 12 Sur 24 Sur 0.2 -- -- 75
2017-10-17 13:00:00 14.5 10 Sur 19 Sur 0 -- -- 78
2017-10-17 12:00:00 14.2 5 Sudeste 15 Sur 0.4 -- -- 77
2017-10-17 11:00:00 15.6 8 Sudoeste 25 Sur 0 -- -- 60
2017-10-17 10:00:00 15.4 9 Sur 26 Sur 0 -- -- 56
2017-10-17 09:00:00 14.7 12 Sur 23 Sur 0 -- -- 57
2017-10-17 08:00:00 14.1 14 Sudeste 26 Sudeste 0 -- -- 60
2017-10-17 07:00:00 13.7 14 Sudeste 23 Sudeste 0 -- -- 63
2017-10-17 06:00:00 15.1 13 Sudeste 22 Sudeste 0 -- -- 54
2017-10-17 05:00:00 15.9 17 Sudeste 25 Sudeste 0 -- -- 53
2017-10-17 04:00:00 15.9 13 Sudeste 21 Sudeste 0 -- -- 54
2017-10-17 03:00:00 13.8 7 Este 10 Este 0 -- -- 61
2017-10-17 02:00:00 13.5 8 Este 13 Este 0 -- -- 65
2017-10-17 01:00:00 14 3 Este 10 Nordeste 0 -- -- 61
2017-10-17 00:00:00 14.5 7 Nordeste 11 Norte 0 -- -- 61
2017-10-16 23:00:00 14.6 3 Este 6 Este 0 -- -- 59
2017-10-16 22:00:00 15.8 3 Este 8 Nordeste 0 -- -- 54
2017-10-16 21:00:00 16.5 4 Este 19 Nordeste 0 -- -- 53
2017-10-16 20:00:00 17.3 12 Nordeste 18 Norte 0 -- -- 52
2017-10-16 19:00:00 18.6 10 Norte 15 Noroeste 0 -- -- 48
2017-10-16 18:00:00 20.3 11 Noroeste 25 Oeste 0 -- -- 41
2017-10-16 17:00:00 22.3 11 Oeste 23 Oeste 0 -- -- 34
2017-10-16 16:00:00 23.7 13 Sudoeste 31 Sudoeste 0 -- -- 30
2017-10-16 15:00:00 23.9 16 Sur 31 Sur 0 -- -- 29
2017-10-16 14:00:00 22.3 12 Sur 26 Sur 0 -- -- 33
2017-10-16 13:00:00 21.4 15 Sudoeste 26 Sudoeste 0 -- -- 35
2017-10-16 12:00:00 18.8 9 Sudeste 20 Sudeste 0 -- -- 44
2017-10-16 11:00:00 16.8 6 Sudeste 15 Este 0 -- -- 49
2017-10-16 10:00:00 14.5 4 Este 10 Sudeste 0 -- -- 57
2017-10-16 09:00:00 12.3 3 Nordeste 17 Sudeste 0 -- -- 63
2017-10-16 08:00:00 12.2 4 Sudeste 9 Sudeste 0 -- -- 63
2017-10-16 07:00:00 11.7 4 Sudeste 12 Sudeste 0 -- -- 65
2017-10-16 06:00:00 10.2 4 Este 8 Sudeste 0 -- -- 69
2017-10-16 05:00:00 14.2 4 Oeste 21 Sur 0 -- -- 56
2017-10-16 04:00:00 17.1 10 Sur 27 Sur 0 -- -- 48
2017-10-16 03:00:00 17.9 16 Sur 32 Sur 0 -- -- 46
2017-10-16 02:00:00 18.6 19 Sur 35 Sur 0 -- -- 44
2017-10-16 01:00:00 18.6 17 Sur 31 Sudeste 0 -- -- 45
2017-10-16 00:00:00 15.8 14 Sudeste 17 Sudeste 0 -- -- 57
2017-10-15 23:00:00 17 12 Sudeste 15 Sudeste 0 -- -- 52
2017-10-15 22:00:00 17 6 Sudeste 10 Sudeste 0 -- -- 52
2017-10-15 21:00:00 21.8 6 Sur 22 Sudeste 0 -- -- 40
2017-10-15 20:00:00 22.1 17 Sudeste 51 Sur 0 -- -- 38
2017-10-15 19:00:00 25.2 5 Sur 22 Sur 0 -- -- 29
2017-10-15 18:00:00 27 11 Sur 22 Sudeste 0 -- -- 27
2017-10-15 17:00:00 26.8 9 Sur 26 Sur 0 -- -- 27
2017-10-15 16:00:00 26.7 9 Sur 25 Sudoeste 0 -- -- 28
2017-10-15 15:00:00 24.3 6 Sur 20 Sudeste 0 -- -- 34
2017-10-15 14:00:00 23.3 8 Sudeste 17 Sur 0 -- -- 33
2017-10-15 13:00:00 23.3 5 Sur 12 Sur 0 -- -- 34
2017-10-15 12:00:00 20.2 7 Sudeste 17 Sudeste 0 -- -- 39
2017-10-15 11:00:00 17 4 Norte 13 Este 0 -- -- 50
2017-10-15 10:00:00 13.2 4 Nordeste 10 Norte 0 -- -- 61
2017-10-15 09:00:00 11.7 3 Norte 7 Este 0 -- -- 65
2017-10-15 08:00:00 12.5 0 Calma 9 Nordeste 0 -- -- 61
2017-10-15 07:00:00 12.1 5 Nordeste 9 Nordeste 0 -- -- 62
2017-10-15 06:00:00 11.8 4 Norte 9 Nordeste 0 -- -- 62
2017-10-15 05:00:00 9.6 4 Nordeste 6 Nordeste 0 -- -- 68
2017-10-15 04:00:00 9.6 5 Nordeste 7 Nordeste 0 -- -- 67
2017-10-15 03:00:00 9.1 3 Nordeste 8 Nordeste 0 -- -- 69
2017-10-15 02:00:00 8.4 2 Nordeste 6 Nordeste 0 -- -- 69
2017-10-15 01:00:00 9.4 4 Nordeste 8 Nordeste 0 -- -- 67
2017-10-15 00:00:00 9.5 5 Nordeste 8 Nordeste 0 -- -- 66
2017-10-14 23:00:00 10.6 6 Nordeste 7 Nordeste 0 -- -- 61
2017-10-14 22:00:00 11.9 4 Nordeste 7 Este 0 -- -- 57
2017-10-14 21:00:00 14 3 Este 7 Este 0 -- -- 51
2017-10-14 20:00:00 17 2 Sur 3 Sur 0 -- -- 44
2017-10-14 19:00:00 23.7 3 Oeste 18 Sudoeste 0 -- -- 30
2017-10-14 18:00:00 25 10 Sudoeste 19 Sudoeste 0 -- -- 28
2017-10-14 17:00:00 25.3 10 Sudoeste 23 Oeste 0 -- -- 28
2017-10-14 16:00:00 25.2 11 Oeste 23 Oeste 0 -- -- 30
2017-10-14 15:00:00 24.4 10 Oeste 21 Sudoeste 0 -- -- 33
2017-10-14 14:00:00 23.6 7 Sudoeste 18 Oeste 0 -- -- 36
2017-10-14 13:00:00 22.5 6 Sudoeste 16 Sudoeste 0 -- -- 40
2017-10-14 12:00:00 19.6 5 Noroeste 9 Oeste 0 -- -- 45
2017-10-14 11:00:00 15 3 Nordeste 11 Nordeste 0 -- -- 56
2017-10-14 10:00:00 10.3 7 Nordeste 13 Nordeste 0 -- -- 70
2017-10-14 09:00:00 5.5 6 Nordeste 8 Nordeste 0 -- -- 85
2017-10-14 08:00:00 5.9 5 Nordeste 9 Nordeste 0 -- -- 84
2017-10-14 07:00:00 4.9 5 Nordeste 7 Nordeste 0 -- -- 86
2017-10-14 06:00:00 5.1 4 Nordeste 8 Norte 0 -- -- 83
2017-10-14 05:00:00 5.5 5 Nordeste 8 Nordeste 0 -- -- 83
2017-10-14 04:00:00 6 4 Nordeste 8 Nordeste 0 -- -- 79
2017-10-14 03:00:00 6.7 4 Nordeste 8 Nordeste 0 -- -- 78
2017-10-14 02:00:00 7.6 4 Nordeste 8 Nordeste 0 -- -- 74
2017-10-14 01:00:00 6.9 4 Nordeste 7 Nordeste 0 -- -- 74
2017-10-14 00:00:00 8.3 -- -- -- -- 0 -- -- 69
2017-10-13 23:00:00 9.1 7 Nordeste 8 Nordeste 0 -- -- 66
2017-10-13 22:00:00 11.6 4 Nordeste 8 Este 0 -- -- 57
2017-10-13 21:00:00 14.7 3 Sudoeste 12 Sudeste 0 -- -- 48
2017-10-13 20:00:00 18 3 Sur 11 Oeste 0 -- -- 40
2017-10-13 19:00:00 23.9 8 Oeste 15 Sudoeste 0 -- -- 29
2017-10-13 18:00:00 25.2 7 Sudoeste 21 Oeste 0 -- -- 27
2017-10-13 17:00:00 25.6 10 Sudoeste 18 Sudoeste 0 -- -- 27
2017-10-13 16:00:00 25.6 8 Sudoeste 22 Sudoeste 0 -- -- 26
2017-10-13 15:00:00 24.9 8 Oeste 17 Sudoeste 0 -- -- 25
2017-10-13 14:00:00 23.6 9 Sudoeste 20 Oeste 0 -- -- 27
2017-10-13 13:00:00 22.2 7 Sur 13 Sur 0 -- -- 31
2017-10-13 12:00:00 19 3 Norte 9 Norte 0 -- -- 38
2017-10-13 11:00:00 15.1 3 Norte 11 Nordeste 0 -- -- 44
2017-10-13 10:00:00 10.8 5 Nordeste 11 Nordeste 0 -- -- 53
2017-10-13 09:00:00 5 4 Nordeste 8 Nordeste 0 -- -- 69
2017-10-13 08:00:00 6.8 5 Este 10 Nordeste 0 -- -- 62
2017-10-13 07:00:00 7.3 5 Nordeste 11 Nordeste 0 -- -- 59
2017-10-13 06:00:00 7 6 Nordeste 10 Nordeste 0 -- -- 59
2017-10-13 05:00:00 6.8 6 Nordeste 13 Nordeste 0 -- -- 60
2017-10-13 04:00:00 8 6 Nordeste 11 Nordeste 0 -- -- 55
2017-10-13 03:00:00 7.7 5 Nordeste 11 Nordeste 0 -- -- 57
2017-10-13 02:00:00 7 6 Nordeste 9 Nordeste 0 -- -- 58
2017-10-13 01:00:00 7.9 6 Nordeste 10 Nordeste 0 -- -- 56
2017-10-13 00:00:00 8.3 4 Nordeste 8 Nordeste 0 -- -- 53
2017-10-12 23:00:00 9 5 Nordeste 8 Nordeste 0 -- -- 50
2017-10-12 22:00:00 10.6 5 Nordeste 7 Este 0 -- -- 47
2017-10-12 21:00:00 13.6 3 Norte -- -- 0 -- -- 40
2017-10-12 20:00:00 17.3 -- -- -- -- 0 -- -- 33
2017-10-12 19:00:00 24.3 3 Oeste 13 Sudoeste 0 -- -- 22
2017-10-12 18:00:00 25.3 6 Sudoeste 16 Oeste 0 -- -- 21
2017-10-12 17:00:00 24.9 10 Oeste 17 Oeste 0 -- -- 21
2017-10-12 16:00:00 24.5 9 Sudoeste 21 Sudoeste 0 -- -- 22
2017-10-12 15:00:00 23.9 9 Sudoeste 22 Sudoeste 0 -- -- 21
2017-10-12 14:00:00 22.7 7 Sudoeste 16 Sudoeste 0 -- -- 23
2017-10-12 13:00:00 21.1 9 Sudoeste 15 Oeste 0 -- -- 25
2017-10-12 12:00:00 18.2 4 Noroeste 9 Noroeste 0 -- -- 37
2017-10-12 11:00:00 13.5 2 Nordeste 8 Nordeste 0 -- -- 48
2017-10-12 10:00:00 8.3 4 Nordeste 13 Nordeste 0 -- -- 61
2017-10-12 09:00:00 2.3 5 Nordeste 8 Nordeste 0 -- -- 80
2017-10-12 08:00:00 2.3 5 Nordeste 8 Este 0 -- -- 78
2017-10-12 07:00:00 2.6 4 Nordeste 6 Nordeste 0 -- -- 75
2017-10-12 06:00:00 3.1 4 Nordeste 6 Sudeste 0 -- -- 72
2017-10-12 05:00:00 3.3 3 Nordeste 7 Nordeste 0 -- -- 71
2017-10-12 04:00:00 4 5 Nordeste 8 Nordeste 0 -- -- 67
2017-10-12 03:00:00 5.2 4 Nordeste 9 Nordeste 0 -- -- 60
2017-10-12 02:00:00 5.4 5 Nordeste 8 Nordeste 0 -- -- 59
2017-10-12 01:00:00 5.4 4 Este 6 Este 0 -- -- 59
2017-10-12 00:00:00 6.5 5 Nordeste 7 Nordeste 0 -- -- 55
2017-10-11 23:00:00 7.9 3 Nordeste 8 Nordeste 0 -- -- 49
2017-10-11 22:00:00 9.8 0 Calma 5 Sur 0 -- -- 43
2017-10-11 21:00:00 12 2 Este 5 Sudoeste 0 -- -- 38
2017-10-11 20:00:00 19.5 5 Sudoeste 13 Sudoeste 0 -- -- 27
2017-10-11 19:00:00 22.9 8 Sudoeste 20 Sudoeste 0 -- -- 22
2017-10-11 18:00:00 24 12 Sudoeste 26 Sudoeste 0 -- -- 20
2017-10-11 17:00:00 24.3 11 Oeste 30 Sudoeste 0 -- -- 20
2017-10-11 16:00:00 23.9 15 Sudoeste 28 Oeste 0 -- -- 21
2017-10-11 15:00:00 23.5 10 Sudoeste 21 Sudoeste 0 -- -- 19
2017-10-11 14:00:00 22 10 Sudoeste 18 Oeste 0 -- -- 23
2017-10-11 13:00:00 20.5 5 Sudoeste 10 Oeste 0 -- -- 27
2017-10-11 12:00:00 16.7 0 Calma 8 Nordeste 0 -- -- 35
2017-10-11 11:00:00 11.7 3 Norte 7 Nordeste 0 -- -- 46
2017-10-11 10:00:00 7.2 4 Nordeste 8 Nordeste 0 -- -- 54
2017-10-11 09:00:00 2.8 6 Nordeste 9 Nordeste 0 -- -- 68
2017-10-11 08:00:00 1.9 4 Nordeste 7 Nordeste 0 -- -- 71
2017-10-11 07:00:00 2.3 4 Nordeste 7 Nordeste 0 -- -- 68
2017-10-11 06:00:00 2.9 6 Nordeste 8 Nordeste 0 -- -- 65
2017-10-11 05:00:00 3 6 Nordeste 7 Nordeste 0 -- -- 65
2017-10-11 04:00:00 4.3 5 Nordeste 8 Nordeste 0 -- -- 60
2017-10-11 03:00:00 4.6 4 Nordeste 8 Nordeste 0 -- -- 58
2017-10-11 02:00:00 5.3 3 Nordeste 7 Nordeste 0 -- -- 56
2017-10-11 01:00:00 5.6 5 Nordeste 8 Nordeste 0 -- -- 54
2017-10-11 00:00:00 7.6 4 Nordeste 9 Nordeste 0 -- -- 47
2017-10-10 23:00:00 8.6 4 Este 12 Nordeste 0 -- -- 45
2017-10-10 22:00:00 9.9 7 Nordeste 9 Nordeste 0 -- -- 41
2017-10-10 21:00:00 16.5 2 Sudoeste 9 Sur 0 -- -- 29
2017-10-10 20:00:00 17.8 5 Sur 10 Sudoeste 0 -- -- 28
2017-10-10 19:00:00 23.7 7 Sudoeste 16 Sudoeste 0 -- -- 19
2017-10-10 18:00:00 24.9 8 Sudoeste 19 Sudoeste 0 -- -- 16
2017-10-10 17:00:00 25.1 8 Sudoeste 22 Sudoeste 0 -- -- 16
2017-10-10 16:00:00 24.5 9 Sudoeste 21 Sudoeste 0 -- -- 18
2017-10-10 15:00:00 23.9 11 Sudoeste 19 Oeste 0 -- -- 19
2017-10-10 14:00:00 23 8 Sudoeste 17 Oeste 0 -- -- 24
2017-10-10 13:00:00 21.6 6 Sudoeste 14 Noroeste 0 -- -- 29
2017-10-10 12:00:00 18.6 4 Noroeste 7 Norte 0 -- -- 37
2017-10-10 11:00:00 14 3 Nordeste 12 Nordeste 0 -- -- 48
2017-10-10 10:00:00 8.7 9 Nordeste 13 Nordeste 0 -- -- 59
2017-10-10 09:00:00 3.2 6 Nordeste 11 Nordeste 0 -- -- 79
2017-10-10 08:00:00 3.2 4 Nordeste 9 Nordeste 0 -- -- 76
2017-10-10 07:00:00 3.8 5 Nordeste 11 Nordeste 0 -- -- 75
2017-10-10 06:00:00 5 6 Nordeste 14 Nordeste 0 -- -- 72
2017-10-10 05:00:00 6.2 8 Nordeste 12 Nordeste 0 -- -- 66
2017-10-10 04:00:00 5.6 5 Nordeste 9 Nordeste 0 -- -- 68
2017-10-10 03:00:00 6.3 4 Nordeste 8 Nordeste 0 -- -- 64
2017-10-10 02:00:00 6.4 4 Nordeste 9 Nordeste 0 -- -- 64
2017-10-10 01:00:00 7.2 4 Nordeste 8 Nordeste 0 -- -- 59
2017-10-10 00:00:00 8.3 5 Nordeste 10 Nordeste 0 -- -- 54
2017-10-09 23:00:00 10 6 Nordeste 9 Nordeste 0 -- -- 42
2017-10-09 22:00:00 9.5 6 Nordeste 9 Este 0 -- -- 43
2017-10-09 21:00:00 11.7 0 Calma 3 Nordeste 0 -- -- 41
2017-10-09 20:00:00 17.8 3 Sudoeste 10 Oeste 0 -- -- 29
2017-10-09 19:00:00 23.6 7 Sudoeste 14 Oeste 0 -- -- 19
2017-10-09 18:00:00 24.5 8 Sudoeste 16 Oeste 0 -- -- 17
2017-10-09 17:00:00 24.6 7 Sudoeste 19 Oeste 0 -- -- 18
2017-10-09 16:00:00 24.3 8 Oeste 20 Oeste 0 -- -- 19
2017-10-09 15:00:00 23.9 6 Sur 18 Sur 0 -- -- 20
2017-10-09 14:00:00 22.9 5 Sudoeste 15 Sudoeste 0 -- -- 21
2017-10-09 13:00:00 21 4 Norte 10 Noroeste 0 -- -- 25
2017-10-09 12:00:00 18.5 2 Norte 8 Este 0 -- -- 31
2017-10-09 11:00:00 13.4 6 Nordeste 12 Nordeste 0 -- -- 37
2017-10-09 10:00:00 7.9 7 Nordeste 14 Nordeste 0 -- -- 53
2017-10-09 09:00:00 2 5 Nordeste 9 Nordeste 0 -- -- 72
2017-10-09 08:00:00 1.5 6 Este 8 Nordeste 0 -- -- 72
2017-10-09 07:00:00 1.9 4 Nordeste 8 Nordeste 0 -- -- 72
2017-10-09 06:00:00 1.5 4 Nordeste 9 Nordeste 0 -- -- 74
2017-10-09 05:00:00 2.7 6 Nordeste 7 Nordeste 0 -- -- 71
2017-10-09 04:00:00 4.2 4 Nordeste 6 Nordeste 0 -- -- 65
2017-10-09 03:00:00 6.2 4 Nordeste 11 Nordeste 0 -- -- 59
2017-10-09 02:00:00 7.7 7 Nordeste 11 Nordeste 0 -- -- 54
2017-10-09 01:00:00 10.7 7 Nordeste 10 Nordeste 0 -- -- 47
2017-10-09 00:00:00 9.5 3 Nordeste 9 Nordeste 0 -- -- 48
2017-10-08 23:00:00 10.9 3 Este 9 Nordeste 0 -- -- 45
2017-10-08 22:00:00 15 6 Nordeste 15 Este 0 -- -- 34
2017-10-08 21:00:00 13.1 9 Este 13 Nordeste 0 -- -- 34
2017-10-08 20:00:00 18.7 4 Sudoeste 12 Sudoeste 0 -- -- 26
2017-10-08 19:00:00 24.4 7 Sudoeste 16 Sudoeste 0 -- -- 18
2017-10-08 18:00:00 25.1 9 Sudoeste 18 Oeste 0 -- -- 17
2017-10-08 17:00:00 25.5 8 Sudoeste 19 Sudoeste 0 -- -- 16
2017-10-08 16:00:00 24.6 9 Sudoeste 19 Oeste 0 -- -- 17
2017-10-08 15:00:00 23.3 10 Oeste 19 Oeste 0 -- -- 17
2017-10-08 14:00:00 22.4 9 Sudoeste 18 Oeste 0 -- -- 18
2017-10-08 13:00:00 21.3 8 Sudoeste 19 Sudoeste 0 -- -- 18
2017-10-08 12:00:00 19 6 Oeste 10 Oeste 0 -- -- 24
2017-10-08 11:00:00 14.3 0 Calma 10 Nordeste 0 -- -- 39
2017-10-08 10:00:00 8.8 6 Nordeste 10 Nordeste 0 -- -- 51
2017-10-08 09:00:00 2.5 6 Nordeste 8 Nordeste 0 -- -- 67
2017-10-08 08:00:00 1.7 5 Nordeste 8 Este 0 -- -- 71
2017-10-08 07:00:00 2.3 6 Nordeste 10 Nordeste 0 -- -- 67
2017-10-08 06:00:00 3 5 Nordeste 9 Nordeste 0 -- -- 66
2017-10-08 05:00:00 2.8 6 Nordeste 9 Nordeste 0 -- -- 62
2017-10-08 04:00:00 4.1 5 Nordeste 8 Nordeste 0 -- -- 59
2017-10-08 03:00:00 3.6 5 Nordeste 7 Nordeste 0 -- -- 56
2017-10-08 02:00:00 4.5 5 Nordeste 8 Nordeste 0 -- -- 50
2017-10-08 01:00:00 5.1 6 Nordeste 8 Nordeste 0 -- -- 45
2017-10-08 00:00:00 5.5 5 Nordeste 6 Nordeste 0 -- -- 49
2017-10-07 23:00:00 8.1 4 Nordeste 7 Este 0 -- -- 44
2017-10-07 22:00:00 9.6 4 Nordeste 8 Este 0 -- -- 43
2017-10-07 21:00:00 11.4 0 Calma 3 Este 0 -- -- 38
2017-10-07 20:00:00 19.4 0 Calma 9 Oeste 0 -- -- 26
2017-10-07 19:00:00 24.4 6 Sudoeste 15 Oeste 0 -- -- 18
2017-10-07 18:00:00 25.5 8 Sudoeste 15 Sudoeste 0 -- -- 17
2017-10-07 17:00:00 25.3 5 Sudoeste 15 Sudoeste 0 -- -- 16
2017-10-07 16:00:00 24.4 5 Oeste 17 Oeste 0 -- -- 16
2017-10-07 15:00:00 23.1 9 Sudoeste 18 Sudoeste 0 -- -- 18
2017-10-07 14:00:00 21.9 8 Sudoeste 16 Oeste 0 -- -- 19
2017-10-07 13:00:00 19.6 8 Oeste 13 Oeste 0 -- -- 22
2017-10-07 12:00:00 16.7 3 Sudoeste 6 Oeste 0 -- -- 30
2017-10-07 11:00:00 11.7 0 Calma 8 Nordeste 0 -- -- 43
2017-10-07 10:00:00 6.2 2 Nordeste 5 Nordeste 0 -- -- 71
2017-10-07 09:00:00 1.8 3 Este 10 Este 0 -- -- 93
2017-10-07 08:00:00 1.1 4 Este 5 Este 0 -- -- 93
2017-10-07 07:00:00 1.3 3 Nordeste 6 Este 0 -- -- 92
2017-10-07 06:00:00 2.2 0 Calma 6 Este 0 -- -- 90
2017-10-07 05:00:00 3.5 0 Calma 6 Sur 0 -- -- 89
2017-10-07 04:00:00 3.6 3 Nordeste 7 Este 0 -- -- 90
2017-10-07 03:00:00 4.1 3 Este 8 Este 0 -- -- 87
2017-10-07 02:00:00 6.3 0 Calma 6 Nordeste 0 -- -- 85
2017-10-07 01:00:00 8 4 Este 8 Este 0 -- -- 85
2017-10-07 00:00:00 9.9 4 Nordeste 7 Nordeste 0 -- -- 74
2017-10-06 23:00:00 11.3 3 Este 5 Este 0 -- -- 69
2017-10-06 22:00:00 14.1 2 Nordeste 11 Este 0 -- -- 66
2017-10-06 21:00:00 16 3 Sudeste 14 Sudeste 0 -- -- 59
2017-10-06 20:00:00 20.3 5 Sudeste 18 Este 0 -- -- 48
2017-10-06 19:00:00 24.9 6 Oeste 18 Oeste 0 -- -- 27
2017-10-06 18:00:00 25.4 10 Sudoeste 16 Oeste 0 -- -- 25
2017-10-06 17:00:00 25.2 4 Sudeste 17 Sudoeste 0 -- -- 25
2017-10-06 16:00:00 24.8 11 Sudoeste 21 Sudoeste 0 -- -- 26
2017-10-06 15:00:00 23.8 7 Sur 17 Sudoeste 0 -- -- 32
2017-10-06 14:00:00 22 8 Sur 16 Sur 0 -- -- 40
2017-10-06 13:00:00 19.3 8 Sudoeste 15 Sudoeste 0 -- -- 49
2017-10-06 12:00:00 16.4 6 Sur 13 Sudoeste 0 -- -- 63
2017-10-06 11:00:00 13.8 4 Sudoeste 8 Oeste 0 -- -- 71
2017-10-06 10:00:00 8.5 0 Calma 5 Nordeste 0 -- -- 91
2017-10-06 09:00:00 3.5 2 Nordeste 5 Este 0 -- -- 95
2017-10-06 08:00:00 3.3 3 Nordeste 5 Nordeste 0 -- -- 93
2017-10-06 07:00:00 4.4 0 Calma 7 Este 0 -- -- 92
2017-10-06 06:00:00 4.5 0 Calma 6 Este 0 -- -- 88
2017-10-06 05:00:00 5.8 0 Calma 4 Este 0 -- -- 87
2017-10-06 04:00:00 8 0 Calma 9 Este 0 -- -- 86
2017-10-06 03:00:00 7.4 3 Nordeste 5 Este 0 -- -- 85
2017-10-06 02:00:00 10.3 3 Norte 9 Nordeste 0 -- -- 78
2017-10-06 01:00:00 12 7 Nordeste 10 Nordeste 0 -- -- 82
2017-10-06 00:00:00 13.3 3 Este 7 Este 0 -- -- 79
2017-10-05 23:00:00 14.9 5 Este 14 Este 0 -- -- 71
2017-10-05 22:00:00 16.3 10 Sudeste 14 Este 0 -- -- 53
2017-10-05 21:00:00 17.8 6 Este 15 Nordeste 0 -- -- 46
2017-10-05 20:00:00 23 10 Este 24 Nordeste 0 -- -- 31
2017-10-05 19:00:00 27 17 Nordeste 26 Nordeste 0 -- -- 23
2017-10-05 18:00:00 29.5 6 Noroeste 20 Sudoeste 0 -- -- 28
2017-10-05 17:00:00 29.2 9 Oeste 22 Sudoeste 0 -- -- 28
2017-10-05 16:00:00 28.8 9 Oeste 24 Sur 0 -- -- 28
2017-10-05 15:00:00 27.9 14 Oeste 23 Sudoeste 0 -- -- 30
2017-10-05 14:00:00 26.9 12 Sudoeste 19 Oeste 0 -- -- 32
2017-10-05 13:00:00 25.4 8 Sudoeste 13 Sudoeste 0 -- -- 35
2017-10-05 12:00:00 22.7 5 Noroeste 9 Noroeste 0 -- -- 40
2017-10-05 11:00:00 18.3 0 Calma 10 Nordeste 0 -- -- 54
2017-10-05 10:00:00 13.1 7 Nordeste 10 Nordeste 0 -- -- 69
2017-10-05 09:00:00 8.1 7 Nordeste 9 Nordeste 0 -- -- 87
2017-10-05 08:00:00 8.2 6 Nordeste 10 Nordeste 0 -- -- 85
2017-10-05 07:00:00 8.3 7 Nordeste 10 Nordeste 0 -- -- 84
2017-10-05 06:00:00 8.3 6 Nordeste 12 Nordeste 0 -- -- 81
2017-10-05 05:00:00 9.9 5 Nordeste 12 Nordeste 0 -- -- 77
2017-10-05 04:00:00 9.4 7 Nordeste 10 Nordeste 0 -- -- 78
2017-10-05 03:00:00 9.1 5 Nordeste 8 Nordeste 0 -- -- 80
2017-10-05 02:00:00 9.5 5 Nordeste 7 Nordeste 0 -- -- 77
2017-10-05 01:00:00 9.8 5 Nordeste 8 Nordeste 0 -- -- 76
2017-10-05 00:00:00 10.6 5 Nordeste 8 Nordeste 0 -- -- 72
2017-10-04 23:00:00 12.1 7 Nordeste 10 Nordeste 0 -- -- 68
2017-10-04 22:00:00 13.8 8 Este 12 Este 0 -- -- 61
2017-10-04 21:00:00 16.5 4 Noroeste 9 Oeste 0 -- -- 58
2017-10-04 20:00:00 21.9 2 Este 11 Sudoeste 0 -- -- 42
2017-10-04 19:00:00 26.5 5 Sudoeste 22 Sur 0 -- -- 31
2017-10-04 18:00:00 26.6 9 Sudoeste 19 Sudoeste 0 -- -- 32
2017-10-04 17:00:00 26.6 8 Sudoeste 22 Oeste 0 -- -- 33
2017-10-04 16:00:00 26.3 8 Sudoeste 20 Oeste 0 -- -- 33
2017-10-04 15:00:00 25.4 11 Sudoeste 18 Sur 0 -- -- 35
2017-10-04 14:00:00 23.9 6 Sur 14 Sur 0 -- -- 36
2017-10-04 13:00:00 22.6 4 Este 14 Sudeste 0 -- -- 41
2017-10-04 12:00:00 21.3 3 Sudeste 11 Sudeste 0 -- -- 49
2017-10-04 11:00:00 16.1 2 Nordeste 8 Nordeste 0 -- -- 66
2017-10-04 10:00:00 11.1 5 Nordeste 10 Nordeste 0 -- -- 85
2017-10-04 09:00:00 6.2 5 Este 7 Nordeste 0 -- -- 94
2017-10-04 08:00:00 6.4 5 Nordeste 8 Este 0 -- -- 93
2017-10-04 07:00:00 7 7 Este 10 Este 0 -- -- 93
2017-10-04 06:00:00 7.5 5 Este 8 Este 0 -- -- 93
2017-10-04 05:00:00 8.4 0 Calma 8 Sudoeste 0 -- -- 89
2017-10-04 04:00:00 10 0 Calma 6 Este 0 -- -- 89
2017-10-04 03:00:00 10.6 4 Este 9 Nordeste 0 -- -- 89
2017-10-04 02:00:00 11.5 4 Nordeste 10 Nordeste 0 -- -- 84
2017-10-04 01:00:00 13.2 4 Nordeste 12 Nordeste 0 -- -- 80
2017-10-04 00:00:00 15.3 6 Nordeste 12 Este 0 -- -- 77
2017-10-03 23:00:00 16 4 Nordeste 25 Este 0 -- -- 72
2017-10-03 22:00:00 17.5 17 Este 25 Este 0 -- -- 65
2017-10-03 21:00:00 19.1 17 Este 36 Este 0 -- -- 58
2017-10-03 20:00:00 22.9 8 Sudeste 14 Sudoeste 0 -- -- 45
2017-10-03 19:00:00 25.7 8 Sudoeste 19 Oeste 0 -- -- 39
2017-10-03 18:00:00 26.4 9 Sudoeste 16 Sudoeste 0 -- -- 39
2017-10-03 17:00:00 26.4 6 Sur 17 Sur 0 -- -- 39
2017-10-03 16:00:00 25.7 6 Sudoeste 22 Sur 0 -- -- 42
2017-10-03 15:00:00 24.9 7 Sudoeste 23 Sudeste 0 -- -- 46
2017-10-03 14:00:00 23.6 6 Sudeste 17 Este 0 -- -- 53
2017-10-03 13:00:00 22.4 11 Sudeste 20 Sudeste 0 -- -- 58
2017-10-03 12:00:00 21 8 Sudeste 17 Este 0 -- -- 65
2017-10-03 11:00:00 19.2 9 Este 16 Sudeste 0 -- -- 73
2017-10-03 10:00:00 14.3 0 Calma 7 Nordeste 0 -- -- 94
2017-10-03 09:00:00 9.2 5 Nordeste 11 Nordeste 0 -- -- 96
2017-10-03 08:00:00 9.1 4 Nordeste 6 Nordeste 0 -- -- 94
2017-10-03 07:00:00 10 3 Este 8 Nordeste 0 -- -- 96
2017-10-03 06:00:00 10.2 5 Nordeste 7 Nordeste 0 -- -- 94
2017-10-03 05:00:00 10.7 6 Nordeste 7 Este 0 -- -- 93
2017-10-03 04:00:00 11.6 0 Calma 6 Nordeste -- -- -- 91
2017-10-03 03:00:00 12.4 5 Nordeste 7 Nordeste 0 -- -- 90
2017-10-03 02:00:00 13.8 4 Nordeste 6 Nordeste 0 -- -- 84
2017-10-03 01:00:00 16.3 4 Nordeste 15 Este 0 -- -- 78
2017-10-03 00:00:00 18.1 6 Nordeste 17 Este 0 -- -- 73
2017-10-02 23:00:00 19.6 12 Sudeste 19 Este 0 -- -- 66
2017-10-02 22:00:00 20.3 3 Nordeste 12 Sur 0 -- -- 60
2017-10-02 21:00:00 21.5 8 Sudeste 10 Sudeste 0 -- -- 57
2017-10-02 20:00:00 24.4 5 Sur 18 Sudoeste 0 -- -- 50
2017-10-02 19:00:00 26.5 11 Sudoeste 21 Sudoeste 0 -- -- 45
2017-10-02 18:00:00 27.3 9 Sur 20 Sudoeste 0 -- -- 44
2017-10-02 17:00:00 27.4 8 Sudoeste 19 Oeste 0 -- -- 44
2017-10-02 16:00:00 26.7 11 Oeste 21 Sudoeste 0 -- -- 47
2017-10-02 15:00:00 26.3 10 Oeste 18 Oeste 0 -- -- 49
2017-10-02 14:00:00 25 4 Sur 12 Sur 0 -- -- 53
2017-10-02 13:00:00 23 10 Oeste 19 Oeste 0 -- -- 59
2017-10-02 12:00:00 22 0 Calma 0 Calma 0 -- -- 63
2017-10-02 11:00:00 19.8 0 Calma 0 Calma 0 -- -- 70
2017-10-02 10:00:00 15.1 0 Calma -- -- 0 -- -- 86
2017-10-02 09:00:00 11 0 Calma 0 Calma 0 -- -- 94
2017-10-02 08:00:00 10.5 0 Calma 0 Calma 0 -- -- 93
2017-10-02 07:00:00 10.3 0 Calma -- -- 0 -- -- 94
2017-10-02 06:00:00 10.2 0 Calma 0 Calma 0 -- -- 93
2017-10-02 05:00:00 10.6 0 Calma 0 Calma 0 -- -- 88
2017-10-02 04:00:00 11 0 Calma 0 Calma 0 -- -- 89
2017-10-02 03:00:00 11.3 0 Calma 0 Calma 0 -- -- 85
2017-10-02 02:00:00 12.1 0 Calma 0 Calma 0 -- -- 82
2017-10-02 01:00:00 13.7 0 Calma 0 Calma 0 -- -- 77
2017-10-02 00:00:00 12.4 0 Calma 0 Calma 0 -- -- 79
2017-10-01 23:00:00 12.2 3 Este 6 Este 0 -- -- 79
2017-10-01 22:00:00 13.6 5 Este 8 Este 0 -- -- 74
2017-10-01 21:00:00 14.6 2 Este 8 Nordeste 0 -- -- 68
2017-10-01 20:00:00 20.4 0 Calma 4 Oeste 0 -- -- 52
2017-10-01 19:00:00 21.1 0 Calma 6 Noroeste 0 -- -- 50
2017-10-01 18:00:00 20.1 0 Calma 4 Oeste 0 -- -- 52
2017-10-01 17:00:00 20.1 3 Noroeste -- -- -- -- -- 52
2017-10-01 16:00:00 20.2 3 Norte 8 Noroeste 0 -- -- 52
2017-10-01 15:00:00 20.4 5 Norte 14 Norte 0 -- -- 50
2017-10-01 14:00:00 20.2 5 Norte 11 Sudoeste 0 -- -- 53
2017-10-01 13:00:00 19.1 8 Oeste 12 Oeste 0 -- -- 59
2017-10-01 12:00:00 18.6 3 Sur 9 Oeste 0 -- -- 59
2017-10-01 11:00:00 15.5 5 Noroeste 8 Noroeste 0 -- -- 70
2017-10-01 10:00:00 12.7 0 Calma 5 Norte 0 -- -- 82
2017-10-01 09:00:00 7.6 4 Nordeste 5 Nordeste 0 -- -- 92
2017-10-01 08:00:00 8 3 Nordeste 6 Este 0 -- -- 89
2017-10-01 07:00:00 8.6 3 Este 6 Este 0 -- -- 89
2017-10-01 06:00:00 9.9 3 Este 4 Este 0 -- -- 84
2017-10-01 05:00:00 10.3 3 Este 5 Este 0 -- -- 86
2017-10-01 04:00:00 10.6 2 Este 4 Sudeste 0 -- -- 81
2017-10-01 03:00:00 10.9 5 Noroeste 13 Sudeste 0 -- -- 82
2017-10-01 02:00:00 10.2 3 Nordeste 8 Sudeste 0 -- -- 81
2017-10-01 01:00:00 10.9 0 Calma 6 Este 0 -- -- 77
2017-10-01 00:00:00 12.1 6 Este 9 Este 0 -- -- 72
2017-09-30 23:00:00 13.8 4 Este 14 Nordeste 0 -- -- 68
2017-09-30 22:00:00 16 10 Nordeste 19 Este 0 -- -- 65
2017-09-30 21:00:00 17.5 10 Nordeste 24 Sudeste 0 -- -- 65
2017-09-30 20:00:00 20 14 Este 23 Este 0 -- -- 57
2017-09-30 19:00:00 21.5 3 Sur 8 Sudoeste 0 -- -- 47
2017-09-30 18:00:00 21.9 6 Sudoeste 13 Oeste 0 -- -- 46
2017-09-30 17:00:00 22.3 6 Oeste 16 Sudoeste 0 -- -- 46
2017-09-30 16:00:00 21.6 7 Oeste 16 Oeste 0 -- -- 47
2017-09-30 15:00:00 21.5 6 Sur 18 Noroeste 0 -- -- 48
2017-09-30 14:00:00 19.5 4 Noroeste 13 Sudoeste 0 -- -- 60
2017-09-30 13:00:00 18.1 3 Nordeste 9 Norte 0 -- -- 68
2017-09-30 12:00:00 16.3 3 Norte 7 Norte 0 -- -- 75
2017-09-30 11:00:00 14.5 4 Nordeste 8 Norte 0 -- -- 81
2017-09-30 10:00:00 12.6 0 Calma 4 Sudeste 0 -- -- 87
2017-09-30 09:00:00 11.8 2 Noroeste 6 Este 0 -- -- 89
2017-09-30 08:00:00 11.1 2 Este 10 Norte 0 -- -- 89
2017-09-30 07:00:00 11.6 5 Sudeste 7 Sudeste 0 -- -- 91
2017-09-30 06:00:00 10.5 0 Calma 4 Este 0 -- -- 89
2017-09-30 05:00:00 11.3 3 Nordeste 5 Nordeste 0 -- -- 88
2017-09-30 04:00:00 11.1 0 Calma 6 Este 0 -- -- 89
2017-09-30 03:00:00 11.4 2 Este 5 Sudeste 0 -- -- 81
2017-09-30 02:00:00 13.4 2 Noroeste 9 Nordeste 0 -- -- 75
2017-09-30 01:00:00 12.6 3 Nordeste 5 Nordeste 0 -- -- 73
2017-09-30 00:00:00 12.3 0 Calma 6 Este 0 -- -- 70
2017-09-29 23:00:00 12.9 2 Este 6 Este 0 -- -- 63
2017-09-29 22:00:00 13.8 2 Nordeste 8 Sudoeste 0 -- -- 60
2017-09-29 21:00:00 15.7 0 Calma 17 Oeste 0 -- -- 52
2017-09-29 20:00:00 19.8 3 Sudeste 5 Sudoeste 0 -- -- 41
2017-09-29 19:00:00 24.5 4 Sudoeste 9 Oeste 0 -- -- 31
2017-09-29 18:00:00 24.2 7 Sudoeste 22 Oeste 0 -- -- 31
2017-09-29 17:00:00 25 17 Sudoeste 28 Oeste 0 -- -- 28
2017-09-29 16:00:00 24.6 16 Oeste 30 Sur 0 -- -- 27
2017-09-29 15:00:00 24.2 15 Sudoeste 23 Sudoeste 0 -- -- 29
2017-09-29 14:00:00 23 12 Oeste 19 Sudoeste 0 -- -- 37
2017-09-29 13:00:00 21.9 9 Oeste 16 Oeste 0 -- -- 40
2017-09-29 12:00:00 21.2 5 Sudoeste 14 Sur 0 -- -- 39
2017-09-29 11:00:00 17.8 5 Sudoeste 10 Sur 0 -- -- 44
2017-09-29 10:00:00 12.3 3 Norte 11 Nordeste 0 -- -- 59
2017-09-29 09:00:00 7 4 Nordeste 9 Este 0 -- -- 78
2017-09-29 08:00:00 6.9 5 Nordeste 9 Nordeste 0 -- -- 75
2017-09-29 07:00:00 6.3 5 Nordeste 7 Nordeste 0 -- -- 77
2017-09-29 06:00:00 6 5 Nordeste 7 Nordeste 0 -- -- 78
2017-09-29 05:00:00 6.2 4 Nordeste 7 Nordeste 0 -- -- 77
2017-09-29 04:00:00 6.7 4 Nordeste 6 Nordeste 0 -- -- 74
2017-09-29 03:00:00 7 4 Nordeste 8 Nordeste 0 -- -- 72
2017-09-29 02:00:00 7.4 5 Nordeste 7 Nordeste 0 -- -- 69
2017-09-29 01:00:00 8.3 5 Nordeste 8 Este 0 -- -- 66
2017-09-29 00:00:00 9.3 0 Calma 7 Este 0 -- -- 61
2017-09-28 23:00:00 11.5 3 Nordeste 5 Este 0 -- -- 55
2017-09-28 22:00:00 15.6 3 Nordeste 12 Sudeste 0 -- -- 43
2017-09-28 21:00:00 17.7 10 Sudeste 11 Sudeste 0 -- -- 38
2017-09-28 20:00:00 21.5 4 Sur 9 Sudoeste 0 -- -- 35
2017-09-28 19:00:00 24.3 5 Sudoeste 19 Sudoeste 0 -- -- 28
2017-09-28 18:00:00 24.9 11 Sudoeste 27 Sudoeste 0 -- -- 26
2017-09-28 17:00:00 25.2 14 Sudoeste 30 Sudoeste 0 -- -- 26
2017-09-28 16:00:00 25.2 10 Sudoeste 24 Sudoeste 0 -- -- 28
2017-09-28 15:00:00 24.7 10 Sudoeste 23 Oeste 0 -- -- 29
2017-09-28 14:00:00 23.3 11 Oeste 23 Sudoeste 0 -- -- 33
2017-09-28 13:00:00 21.7 10 Sudoeste 19 Sudoeste 0 -- -- 38
2017-09-28 12:00:00 20.6 9 Sur 15 Sur 0 -- -- 40
2017-09-28 11:00:00 17.6 5 Sur 12 Sur 0 -- -- 45
2017-09-28 10:00:00 11.9 3 Nordeste 8 Nordeste 0 -- -- 57
2017-09-28 09:00:00 6 4 Nordeste 8 Nordeste 0 -- -- 79
2017-09-28 08:00:00 4.9 4 Nordeste 8 Nordeste 0 -- -- 77
2017-09-28 07:00:00 5.5 3 Nordeste 8 Nordeste 0 -- -- 73
2017-09-28 06:00:00 6.3 6 Nordeste 8 Nordeste 0 -- -- 73
2017-09-28 05:00:00 5.5 4 Nordeste 6 Nordeste 0 -- -- 73
2017-09-28 04:00:00 6 4 Nordeste 6 Nordeste 0 -- -- 73
2017-09-28 03:00:00 6.5 4 Nordeste 7 Nordeste 0 -- -- 70
2017-09-28 02:00:00 7.4 4 Nordeste 5 Nordeste 0 -- -- 67
2017-09-28 01:00:00 8.7 3 Nordeste 8 Nordeste 0 -- -- 63
2017-09-28 00:00:00 8.7 6 Este 8 Este 0 -- -- 63
2017-09-27 23:00:00 11 3 Nordeste 7 Norte 0 -- -- 56
2017-09-27 22:00:00 14.6 4 Nordeste 10 Sudeste 0 -- -- 48
2017-09-27 21:00:00 15.2 6 Sudeste 8 Sudeste 0 -- -- 47
2017-09-27 20:00:00 22.7 4 Sudoeste 11 Sudoeste 0 -- -- 32
2017-09-27 19:00:00 24.6 6 Sudoeste 14 Sudoeste 0 -- -- 29
2017-09-27 18:00:00 24.7 7 Sudoeste 17 Sudoeste 0 -- -- 29
2017-09-27 17:00:00 24.7 11 Sudoeste 26 Oeste 0 -- -- 29
2017-09-27 16:00:00 24.2 10 Sudoeste 22 Sudoeste 0 -- -- 30
2017-09-27 15:00:00 23.1 10 Oeste 26 Oeste 0 -- -- 31
2017-09-27 14:00:00 22.1 12 Sudoeste 25 Oeste 0 -- -- 36
2017-09-27 13:00:00 21.5 12 Oeste 23 Oeste 0 -- -- 37
2017-09-27 12:00:00 19.8 4 Sudoeste 10 Noroeste 0 -- -- 42
2017-09-27 11:00:00 15.4 3 Norte 6 Norte 0 -- -- 58
2017-09-27 10:00:00 10.4 3 Nordeste 8 Nordeste 0 -- -- 73
2017-09-27 09:00:00 4.7 5 Nordeste 9 Nordeste 0 -- -- 95
2017-09-27 08:00:00 3.5 4 Nordeste 8 Nordeste 0 -- -- 90
2017-09-27 07:00:00 3.9 5 Nordeste 7 Nordeste 0 -- -- 89
2017-09-27 06:00:00 4.4 4 Nordeste 6 Nordeste 0 -- -- 89
2017-09-27 05:00:00 5.2 5 Nordeste 7 Nordeste 0 -- -- 90
2017-09-27 04:00:00 5.8 4 Nordeste 7 Nordeste 0 -- -- 86
2017-09-27 03:00:00 5.5 4 Nordeste 8 Norte 0 -- -- 84
2017-09-27 02:00:00 6.1 4 Nordeste 8 Nordeste 0 -- -- 82
2017-09-27 01:00:00 6.9 6 Este 9 Nordeste 0 -- -- 78
2017-09-27 00:00:00 7.8 5 Este 9 Nordeste 0 -- -- 72
2017-09-26 23:00:00 9.5 4 Este 8 Este 0 -- -- 67
2017-09-26 22:00:00 11.4 7 Este 9 Este 0 -- -- 60
2017-09-26 21:00:00 13.2 5 Sudeste 6 Sur 0 -- -- 55
2017-09-26 20:00:00 19.7 6 Sudoeste 13 Sudoeste 0 -- -- 40
2017-09-26 19:00:00 21.3 8 Sudoeste 17 Sudoeste 0 -- -- 37
2017-09-26 18:00:00 21.7 9 Sudoeste 19 Sudoeste 0 -- -- 37
2017-09-26 17:00:00 21.5 8 Sudoeste 22 Sur 0 -- -- 39
2017-09-26 16:00:00 20.9 9 Sudoeste 23 Oeste 0 -- -- 42
2017-09-26 15:00:00 20.1 8 Sudoeste 20 Sudoeste 0 -- -- 47
2017-09-26 14:00:00 19 6 Sur 18 Sudoeste 0 -- -- 53
2017-09-26 13:00:00 17 5 Noroeste 13 Oeste 0 -- -- 60
2017-09-26 12:00:00 14.8 4 Noroeste 9 Norte 0 -- -- 70
2017-09-26 11:00:00 12.4 5 Norte 11 Norte 0 -- -- 78
2017-09-26 10:00:00 9.1 5 Nordeste 7 Nordeste 0 -- -- 88
2017-09-26 09:00:00 4.5 3 Nordeste 6 Nordeste 0 -- -- 95
2017-09-26 08:00:00 3.4 4 Nordeste 8 Nordeste 0 -- -- 92
2017-09-26 07:00:00 4.8 3 Nordeste 8 Nordeste 0 -- -- 96
2017-09-26 06:00:00 4.8 5 Nordeste 8 Nordeste 0 -- -- 93
2017-09-26 05:00:00 4.8 3 Nordeste 5 Este 0 -- -- 91
2017-09-26 04:00:00 5.5 0 Calma 4 Nordeste 0 -- -- 88
2017-09-26 03:00:00 6.9 0 Calma 6 Este 0 -- -- 87
2017-09-26 02:00:00 8.2 0 Calma 8 Este 0 -- -- 86
2017-09-26 01:00:00 8.8 2 Norte 9 Este 0 -- -- 83
2017-09-26 00:00:00 8.5 6 Este 8 Este 0 -- -- 82
2017-09-25 23:00:00 10.8 3 Este 12 Este 0 -- -- 71
2017-09-25 22:00:00 12.9 4 Este 15 Este 0 -- -- 64
2017-09-25 21:00:00 14.6 9 Este 17 Nordeste 0 -- -- 59
2017-09-25 20:00:00 18.1 9 Nordeste 21 Norte 0 -- -- 48
2017-09-25 19:00:00 19.5 13 Norte 23 Norte 0 -- -- 44
2017-09-25 18:00:00 20.8 4 Noroeste 14 Norte 0 -- -- 39
2017-09-25 17:00:00 22.2 4 Oeste 17 Norte 0 -- -- 37
2017-09-25 16:00:00 21.8 5 Sudeste 21 Sudoeste 0 -- -- 39
2017-09-25 15:00:00 20.8 6 Sudoeste 17 Oeste 0 -- -- 41
2017-09-25 14:00:00 19.8 6 Noroeste 15 Noroeste 0 -- -- 42
2017-09-25 13:00:00 18.2 5 Este 11 Este 0 -- -- 47
2017-09-25 12:00:00 16.7 5 Noroeste 10 Norte 0 -- -- 52
2017-09-25 11:00:00 15 4 Oeste 8 Noroeste 0 -- -- 62
2017-09-25 10:00:00 11.2 0 Calma 6 Nordeste 0 -- -- 81
2017-09-25 09:00:00 6.4 4 Nordeste 9 Nordeste 0 -- -- 94
2017-09-25 08:00:00 5.3 2 Este 4 Este 0 -- -- 91
2017-09-25 07:00:00 6.1 0 Calma 5 Este 0 -- -- 89
2017-09-25 06:00:00 7.7 5 Este 7 Este 0 -- -- 86
2017-09-25 05:00:00 10.2 4 Sudeste 13 Oeste 0 -- -- 85
2017-09-25 04:00:00 12.6 5 Sudoeste 9 Oeste 0 -- -- 81
2017-09-25 03:00:00 15.2 2 Sudoeste 12 Sudoeste 0 -- -- 70
2017-09-25 02:00:00 15.6 4 Oeste 9 Oeste 0 -- -- 67
2017-09-25 01:00:00 16 6 Norte 16 Norte 0 -- -- 66
2017-09-25 00:00:00 18.1 4 Norte 19 Oeste 0 -- -- 51
2017-09-24 23:00:00 19 9 Oeste 21 Oeste 0 -- -- 41
2017-09-24 22:00:00 18.7 8 Sudoeste 18 Sudoeste 0 -- -- 36
2017-09-24 21:00:00 20.7 12 Sudoeste 25 Sudoeste 0 -- -- 27
2017-09-24 20:00:00 22.2 10 Sudoeste 23 Oeste 0 -- -- 26
2017-09-24 19:00:00 24.7 13 Sudoeste 25 Sudoeste 0 -- -- 24
2017-09-24 18:00:00 25.5 7 Oeste 24 Oeste 0 -- -- 24
2017-09-24 17:00:00 25.2 12 Oeste 30 Oeste 0 -- -- 25
2017-09-24 16:00:00 25.2 15 Sudoeste 32 Sudoeste 0 -- -- 19
2017-09-24 15:00:00 24.2 15 Sudoeste 30 Sudoeste 0 -- -- 23
2017-09-24 14:00:00 22.7 14 Sudoeste 27 Sudoeste 0 -- -- 32
2017-09-24 13:00:00 21.6 9 Oeste 20 Sudoeste 0 -- -- 38
2017-09-24 12:00:00 20.1 5 Oeste 11 Noroeste 0 -- -- 42
2017-09-24 11:00:00 16.9 4 Oeste 6 Sudoeste 0 -- -- 52
2017-09-24 10:00:00 11.8 3 Nordeste 8 Nordeste 0 -- -- 73
2017-09-24 09:00:00 6.6 4 Este 9 Nordeste 0 -- -- 93
2017-09-24 08:00:00 5.8 3 Nordeste 7 Nordeste 0 -- -- 91
2017-09-24 07:00:00 5.7 3 Nordeste 5 Nordeste 0 -- -- 86
2017-09-24 06:00:00 5.8 4 Nordeste 5 Nordeste 0 -- -- 84
2017-09-24 05:00:00 6.6 3 Nordeste 6 Nordeste 0 -- -- 79
2017-09-24 04:00:00 7.3 3 Nordeste 8 Norte 0 -- -- 76
2017-09-24 03:00:00 8.4 5 Nordeste 9 Este 0 -- -- 73
2017-09-24 02:00:00 9 3 Nordeste 5 Nordeste 0 -- -- 68
2017-09-24 01:00:00 10.6 0 Calma 10 Este 0 -- -- 63
2017-09-24 00:00:00 12.1 0 Calma 5 Sur 0 -- -- 58
2017-09-23 23:00:00 14.3 0 Calma 8 Sudoeste 0 -- -- 51
2017-09-23 22:00:00 17.3 6 Sur 13 Sur 0 -- -- 40
2017-09-23 21:00:00 15.9 6 Sur 8 Sur 0 -- -- 49
2017-09-23 20:00:00 21 0 Calma 10 Sudoeste 0 -- -- 42
2017-09-23 19:00:00 23.8 6 Oeste 21 Sudoeste 0 -- -- 35
2017-09-23 18:00:00 23.7 12 Sudoeste 24 Oeste 0 -- -- 34
2017-09-23 17:00:00 24.6 13 Sudoeste 34 Sudoeste 0 -- -- 29
2017-09-23 16:00:00 24.5 13 Oeste 27 Oeste 0 -- -- 30
2017-09-23 15:00:00 23.5 14 Oeste 27 Oeste 0 -- -- 37
2017-09-23 14:00:00 22.4 11 Sudoeste 22 Sudoeste 0 -- -- 41
2017-09-23 13:00:00 21 8 Sur 15 Sudoeste 0 -- -- 48
2017-09-23 12:00:00 19.1 3 Sudeste 9 Sur 0 -- -- 56
2017-09-23 11:00:00 15.9 4 Norte 8 Norte 0 -- -- 68
2017-09-23 10:00:00 11.6 4 Nordeste 9 Nordeste 0 -- -- 85
2017-09-23 09:00:00 7.4 4 Nordeste 9 Nordeste 0 -- -- 96
2017-09-23 08:00:00 6.2 4 Nordeste 8 Este 0 -- -- 91
2017-09-23 07:00:00 7 6 Este 8 Nordeste 0 -- -- 93
2017-09-23 06:00:00 8 2 Nordeste 9 Norte 0 -- -- 89
2017-09-23 05:00:00 9.1 3 Nordeste 8 Nordeste 0 -- -- 90
2017-09-23 04:00:00 10.3 6 Este 13 Nordeste 0 -- -- 83
2017-09-23 03:00:00 12.1 11 Nordeste 22 Nordeste 0 -- -- 83
2017-09-23 02:00:00 12.6 9 Nordeste 15 Nordeste 0 -- -- 81
2017-09-23 01:00:00 13 8 Nordeste 13 Nordeste 0 -- -- 81
2017-09-23 00:00:00 13.3 8 Nordeste 15 Nordeste 0 -- -- 79